»·PEaware :: SWA116 KPHX-KLAS

SWA116 :: KPHX-KLAS

FLIGHT INFORMATION

Flight Status: Arrived
Operator:
Southwest Airlines
More flights by this operator :: More flights under this callsign
Pilot: Brad B. (8715)
Aircraft: BOEING 737-900
(B739)
More flights by this aircraft type
Origin: KPHX Phoenix Sky Harbor Intl
United States
Destination: KLAS McCarran Intl
United States
More flights between these airports :: More routes between these airports
Route: +MAYSA5 SISIE IGM TYSSN5
File this flight plan on PilotEdge
Remarks:
Altitude:
(Current/Filed)
28,000ft
Speed:
(Current/Filed)
453kts
Departed: 18-Sep-17 11:44 AM
Arrived: 18-Sep-17 12:27 PM
Distance/Time
Traveled:
221nm/0:43
Distance/Time
To Go:
Arrived

Flight Plot

Page will automatically refresh every two minutes.

Flight plan parsing failed; only flown route is shown


Map Options




Map Legend


Flown Route
Filed Route
Departure Airport
Arrival Airport
Navaid (VOR, NDB)
Fix

Horizontal Profiles

Position Reports

Time Latitude Longitude Heading Altitude Ground
Speed
18-Sep-17 11:26 33.434442 -111.994784 89 1143ft 0kts
18-Sep-17 11:27 33.434442 -111.994784 89 1143ft 0kts
18-Sep-17 11:28 33.434442 -111.994784 89 1143ft 0kts
18-Sep-17 11:29 33.434442 -111.994784 89 1143ft 0kts
18-Sep-17 11:30 33.434442 -111.994784 89 1143ft 0kts
18-Sep-17 11:31 33.434442 -111.994784 89 1143ft 0kts
18-Sep-17 11:32 33.434442 -111.994784 89 1143ft 0kts
18-Sep-17 11:33 33.434442 -111.994784 89 1143ft 0kts
18-Sep-17 11:34 33.434442 -111.994784 89 1143ft 0kts
18-Sep-17 11:35 33.434442 -111.994784 89 1143ft 0kts
18-Sep-17 11:36 33.434442 -111.994784 89 1143ft 0kts
18-Sep-17 11:37 33.434442 -111.994784 89 1143ft 0kts
18-Sep-17 11:38 33.434442 -111.994784 89 1143ft 0kts
18-Sep-17 11:40 33.434442 -111.995075 90 1143ft 2kts
18-Sep-17 11:41 33.434442 -111.995210 90 1143ft 0kts
18-Sep-17 11:42 33.434275 -111.995116 198 1143ft 7kts
18-Sep-17 11:43 33.432874 -111.996681 272 1143ft 19kts
18-Sep-17 11:44 33.432861 -112.003138 268 1143ft 15kts
18-Sep-17 11:45 33.432189 -112.009552 268 1143ft 20kts
18-Sep-17 11:46 33.432218 -112.017650 273 1143ft 26kts
18-Sep-17 11:47 33.432201 -112.025276 269 1143ft 16kts
18-Sep-17 11:48 33.431048 -112.020942 90 1143ft 88kts
18-Sep-17 11:49 33.430803 -111.967479 89 2989ft 194kts
18-Sep-17 11:50 33.435640 -111.891694 82 5353ft 264kts
18-Sep-17 11:51 33.498816 -111.845475 4 8555ft 304kts
18-Sep-17 11:52 33.585937 -111.840550 0 11684ft 334kts
18-Sep-17 11:53 33.688647 -111.842248 348 13635ft 393kts
18-Sep-17 11:54 33.773572 -111.918204 305 16692ft 397kts
18-Sep-17 11:55 33.840906 -112.027337 305 19439ft 413kts
18-Sep-17 11:56 33.910239 -112.140532 304 21874ft 427kts
18-Sep-17 11:57 33.981552 -112.258206 305 23972ft 440kts
18-Sep-17 11:58 34.063042 -112.370590 318 25775ft 454kts
18-Sep-17 11:59 34.161137 -112.468929 319 27411ft 464kts
18-Sep-17 12:00 34.260906 -112.569525 319 28138ft 465kts
18-Sep-17 12:01 34.359875 -112.669186 319 28161ft 463kts
18-Sep-17 12:02 34.458497 -112.769260 318 28183ft 463kts
18-Sep-17 12:03 34.557168 -112.869888 318 28182ft 462kts
18-Sep-17 12:04 34.652910 -112.973429 316 28165ft 461kts
18-Sep-17 12:05 34.748018 -113.077795 316 28181ft 461kts
18-Sep-17 12:06 34.843685 -113.182386 316 28166ft 461kts
18-Sep-17 12:07 34.938594 -113.287060 316 28149ft 461kts
18-Sep-17 12:08 35.017832 -113.408233 298 28133ft 457kts
18-Sep-17 12:09 35.080182 -113.543255 298 28117ft 456kts
18-Sep-17 12:10 35.141683 -113.675527 298 28104ft 430kts
18-Sep-17 12:11 35.199200 -113.800327 297 27070ft 412kts
18-Sep-17 12:12 35.256766 -113.919666 306 24595ft 400kts
18-Sep-17 12:13 35.339689 -114.007636 320 22253ft 391kts
18-Sep-17 12:14 35.425376 -114.087320 319 19894ft 380kts
18-Sep-17 12:15 35.508526 -114.164639 319 17749ft 370kts
18-Sep-17 12:16 35.589767 -114.240343 319 15756ft 361kts
18-Sep-17 12:17 35.667106 -114.312811 319 13857ft 335kts
18-Sep-17 12:18 35.738691 -114.378685 325 12141ft 313kts
18-Sep-17 12:19 35.818054 -114.419021 336 12017ft 309kts
18-Sep-17 12:20 35.898584 -114.456138 336 11337ft 305kts
18-Sep-17 12:21 35.978166 -114.493744 336 10426ft 304kts
18-Sep-17 12:22 36.040773 -114.544953 290 9829ft 255kts
18-Sep-17 12:23 36.056399 -114.628293 276 8987ft 248kts
18-Sep-17 12:24 36.063651 -114.712138 272 7759ft 243kts
18-Sep-17 12:25 36.070133 -114.794390 272 6527ft 238kts
18-Sep-17 12:26 36.073726 -114.874661 267 5487ft 235kts
18-Sep-17 12:27 36.073801 -114.951989 266 4824ft 206kts
18-Sep-17 12:28 36.073748 -115.018813 266 3796ft 179kts
18-Sep-17 12:29 36.073615 -115.072942 265 2964ft 144kts
18-Sep-17 12:30 36.073677 -115.123021 265 2213ft 150kts
18-Sep-17 12:31 36.074313 -115.149672 298 2123ft 10kts
18-Sep-17 12:32 36.074612 -115.150325 299 2123ft 0kts

Navigation Log

Ident Type
Flight plan parsing failed, navigation log unavailable